Time;durP1;ratioP1;P1;durP2;ratioP2;P2;SDS_P1;SDS_P2;PMS_P1;PMS_P2;Temp;Humidity;BMP_temperature;BMP_pressure;BME280_temperature;BME280_humidity;BME280_pressure;Samples;Min_cycle;Max_cycle;Signal;HPM_P1;HPM_P2
2023/06/18 00:01:18;;;;;;;;;;;;;;;27.13;36.72;100051.09;5085551;28;1054;-19
2023/06/18 00:03:44;;;;;;;;;;;;;;;27.27;36.78;100056.56;5087189;28;1105;-19
2023/06/18 00:06:10;;;;;;;;;;;;;;;27.49;36.96;100056.44;5076870;28;1075;-20
2023/06/18 00:08:35;;;;;;;;;;;;;;;27.47;36.54;100070.16;5090677;28;1910;-19
2023/06/18 00:11:01;;;;;;;;;;;;;;;27.50;35.33;100060.78;5084813;28;1177;-18
2023/06/18 00:13:26;;;;;;;;;;;;;;;27.47;36.79;100072.00;5095726;28;1166;-20
2023/06/18 00:15:52;;;;;;;;;;;;;;;27.54;37.03;100075.56;5084405;28;1023;-19
2023/06/18 00:18:17;;;;;;;;;;;;;;;27.43;37.26;100063.47;5082034;28;1074;-19
2023/06/18 00:20:43;;;;;;;;;;;;;;;27.42;38.36;100074.47;5076987;28;1246;-19
2023/06/18 00:23:08;;;;;;;;;;;;;;;27.21;38.74;100071.69;5078023;28;1110;-19
2023/06/18 00:25:35;;;;;;;;;;;;;;;27.19;39.73;100062.13;5088331;28;1154;-19
2023/06/18 00:28:01;;;;;;;;;;;;;;;27.13;39.63;100072.69;5082374;28;1910;-19
2023/06/18 00:30:26;;;;;;;;;;;;;;;27.17;40.25;100067.72;5058635;28;1078;-19
2023/06/18 00:32:52;;;;;;;;;;;;;;;27.35;39.21;100061.78;5071801;28;1207;-19
2023/06/18 00:35:17;;;;;;;;;;;;;;;27.29;39.62;100064.47;5066300;28;1249;-19
2023/06/18 00:37:47;;;;;;;;;;;;;;;27.19;40.13;100071.06;5082312;28;1065;-20
2023/06/18 00:40:13;;;;;;;;;;;;;;;27.23;40.21;100074.19;5058354;28;858;-19
2023/06/18 00:42:39;;;;;;;;;;;;;;;27.32;40.00;100064.06;5090130;28;1087;-19
2023/06/18 00:45:05;;;;;;;;;;;;;;;27.28;40.12;100071.72;5076726;28;1143;-18
2023/06/18 00:47:31;;;;;;;;;;;;;;;27.37;40.17;100070.53;5059718;28;1229;-19
2023/06/18 00:49:57;;;;;;;;;;;;;;;27.26;40.82;100071.91;5078253;28;1913;-18
2023/06/18 00:52:23;;;;;;;;;;;;;;;27.24;40.88;100075.88;5076851;28;1078;-18
2023/06/18 00:54:49;;;;;;;;;;;;;;;27.37;40.87;100070.53;5084543;28;1059;-19
2023/06/18 00:57:17;;;;;;;;;;;;;;;27.33;40.91;100071.94;5081488;28;1065;-19
2023/06/18 00:59:42;;;;;;;;;;;;;;;27.32;41.03;100072.16;5084902;28;1047;-19
2023/06/18 01:02:08;;;;;;;;;;;;;;;27.27;41.00;100078.16;5064483;28;1130;-20
2023/06/18 01:04:34;;;;;;;;;;;;;;;27.23;40.61;100074.19;5069390;28;1113;-18
2023/06/18 01:07:01;;;;;;;;;;;;;;;27.37;40.64;100075.94;5074501;28;1062;-19
2023/06/18 01:09:26;;;;;;;;;;;;;;;27.24;40.96;100070.47;5057955;28;1915;-18
2023/06/18 01:11:52;;;;;;;;;;;;;;;27.30;40.84;100075.06;5076231;28;1472;-18
2023/06/18 01:14:19;;;;;;;;;;;;;;;27.21;41.24;100079.78;5076395;28;1228;-19
2023/06/18 01:16:45;;;;;;;;;;;;;;;27.24;40.68;100082.06;5076054;28;1195;-19
2023/06/18 01:19:12;;;;;;;;;;;;;;;27.35;40.69;100071.75;5076909;28;1042;-18
2023/06/18 01:21:37;;;;;;;;;;;;;;;27.34;40.91;100072.78;5059952;28;1114;-19
2023/06/18 01:24:11;;;;;;;;;;;;;;;27.24;41.13;100068.56;5069783;28;1066;-20
2023/06/18 01:26:37;;;;;;;;;;;;;;;27.18;41.25;100071.25;5074526;28;1133;-19
2023/06/18 01:29:02;;;;;;;;;;;;;;;27.25;41.06;100074.81;5077984;28;1906;-19
2023/06/18 01:31:34;;;;;;;;;;;;;;;27.26;41.07;100080.03;5077965;28;1221;-19
2023/06/18 01:34:01;;;;;;;;;;;;;;;27.20;40.90;100078.13;5085589;28;1046;-19
2023/06/18 01:36:29;;;;;;;;;;;;;;;27.31;40.97;100078.59;5075855;28;1158;-19
2023/06/18 01:38:56;;;;;;;;;;;;;;;27.26;41.09;100080.03;5057996;28;1242;-19
2023/06/18 01:41:24;;;;;;;;;;;;;;;27.17;41.40;100083.94;5072408;28;1086;-19
2023/06/18 01:43:52;;;;;;;;;;;;;;;27.19;41.11;100083.72;5069558;28;1163;-20
2023/06/18 01:46:25;;;;;;;;;;;;;;;27.14;41.76;100078.94;5076806;28;1050;-19
2023/06/18 01:48:55;;;;;;;;;;;;;;;27.06;42.00;100084.50;5058594;28;1902;-19
2023/06/18 01:51:21;;;;;;;;;;;;;;;27.31;41.26;100079.41;5078478;28;1186;-19
2023/06/18 01:53:46;;;;;;;;;;;;;;;27.12;41.59;100083.69;5064341;28;913;-19
2023/06/18 01:56:13;;;;;;;;;;;;;;;27.11;41.55;100087.44;5088650;28;1140;-19
2023/06/18 01:58:42;;;;;;;;;;;;;;;27.14;41.51;100084.34;5077639;28;1118;-19
2023/06/18 02:01:11;;;;;;;;;;;;;;;27.22;41.30;100089.56;5074083;28;1322;-19
2023/06/18 02:03:40;;;;;;;;;;;;;;;27.19;41.26;100089.97;5092917;28;1141;-18
2023/06/18 02:06:06;;;;;;;;;;;;;;;27.16;41.66;100086.84;5089509;28;963;-19
2023/06/18 02:08:31;;;;;;;;;;;;;;;27.05;42.13;100090.91;5094219;28;1905;-19
2023/06/18 02:10:57;;;;;;;;;;;;;;;27.12;41.76;100089.94;5091254;28;1130;-19
2023/06/18 02:13:22;;;;;;;;;;;;;;;27.16;41.53;100094.94;5092931;28;1043;-18
2023/06/18 02:15:48;;;;;;;;;;;;;;;27.21;41.51;100101.38;5061028;28;1325;-19
2023/06/18 02:18:13;;;;;;;;;;;;;;;27.12;42.01;100095.34;5084198;28;921;-19
2023/06/18 02:20:39;;;;;;;;;;;;;;;27.07;41.85;100100.50;5092053;28;1111;-18
2023/06/18 02:23:05;;;;;;;;;;;;;;;27.12;41.80;100102.59;5077612;28;1061;-19
2023/06/18 02:25:32;;;;;;;;;;;;;;;27.10;42.19;100094.69;5092203;28;1118;-19
2023/06/18 02:27:58;;;;;;;;;;;;;;;27.10;42.07;100101.94;5061356;28;1969;-19
2023/06/18 02:30:28;;;;;;;;;;;;;;;27.14;41.59;100106.75;5091308;28;940;-19
2023/06/18 02:32:58;;;;;;;;;;;;;;;27.25;41.10;100108.06;5060792;28;1079;-19
2023/06/18 02:35:27;;;;;;;;;;;;;;;27.19;41.27;100106.16;5087987;28;983;-19
2023/06/18 02:37:53;;;;;;;;;;;;;;;27.18;41.26;100101.78;5083276;28;1162;-19
2023/06/18 02:40:19;;;;;;;;;;;;;;;27.09;41.29;100111.09;5087780;28;1113;-19
2023/06/18 02:42:47;;;;;;;;;;;;;;;27.12;39.27;100110.69;5082804;28;1038;-18
2023/06/18 02:45:14;;;;;;;;;;;;;;;27.20;39.93;100104.28;5060783;28;1273;-19
2023/06/18 02:47:40;;;;;;;;;;;;;;;27.24;40.29;100102.88;5078818;28;1988;-19
2023/06/18 02:50:07;;;;;;;;;;;;;;;27.07;39.74;100105.88;5060551;28;1397;-20
2023/06/18 02:52:32;;;;;;;;;;;;;;;27.26;39.21;100108.88;5064129;28;1203;-18
2023/06/18 02:54:58;;;;;;;;;;;;;;;27.36;38.89;100111.25;5069931;28;1098;-19
2023/06/18 02:57:23;;;;;;;;;;;;;;;27.29;39.67;100105.81;5076698;28;1078;-19
2023/06/18 02:59:49;;;;;;;;;;;;;;;27.40;39.13;100107.09;5071021;28;1421;-19
2023/06/18 03:02:16;;;;;;;;;;;;;;;27.45;38.62;100101.09;5063480;28;1154;-19
2023/06/18 03:04:41;;;;;;;;;;;;;;;27.22;38.55;100113.03;5070306;28;1213;-18
2023/06/18 03:07:07;;;;;;;;;;;;;;;27.42;39.01;100105.03;5066684;28;1134;-19
2023/06/18 03:09:32;;;;;;;;;;;;;;;27.38;39.15;100112.69;5088147;28;1968;-18
2023/06/18 03:11:59;;;;;;;;;;;;;;;27.29;39.55;100107.66;5063911;28;1162;-18
2023/06/18 03:14:25;;;;;;;;;;;;;;;27.35;39.17;100107.69;5069983;28;1172;-18
2023/06/18 03:16:51;;;;;;;;;;;;;;;27.43;39.44;100119.34;5066317;28;1253;-20
2023/06/18 03:19:18;;;;;;;;;;;;;;;26.75;42.93;100111.66;5065812;28;1414;-19
2023/06/18 03:21:44;;;;;;;;;;;;;;;26.43;44.06;100118.44;5067609;28;1454;-19
2023/06/18 03:24:11;;;;;;;;;;;;;;;26.27;44.81;100115.81;5091584;28;1039;-21
2023/06/18 03:26:37;;;;;;;;;;;;;;;26.43;44.96;100111.19;5072140;28;1186;-20
2023/06/18 03:29:05;;;;;;;;;;;;;;;25.83;45.70;100106.84;5073389;28;1977;-20
2023/06/18 03:31:32;;;;;;;;;;;;;;;25.72;47.09;100107.34;5071754;28;2034;-19
2023/06/18 03:34:01;;;;;;;;;;;;;;;25.62;47.09;100113.00;5059823;28;1135;-20
2023/06/18 03:36:31;;;;;;;;;;;;;;;25.87;45.99;100113.53;5068196;28;1303;-20
2023/06/18 03:38:57;;;;;;;;;;;;;;;25.78;46.81;100112.81;5077375;28;1098;-20
2023/06/18 03:41:22;;;;;;;;;;;;;;;26.01;46.42;100111.81;5059170;28;1319;-20
2023/06/18 03:43:49;;;;;;;;;;;;;;;25.99;46.92;100121.13;5063767;28;1049;-19
2023/06/18 03:46:15;;;;;;;;;;;;;;;25.98;46.46;100117.56;5059221;28;1295;-19
2023/06/18 03:48:43;;;;;;;;;;;;;;;25.87;47.13;100116.22;5058795;28;1909;-20
2023/06/18 03:51:09;;;;;;;;;;;;;;;25.62;47.70;100119.22;5042695;28;1294;-19
2023/06/18 03:53:37;;;;;;;;;;;;;;;25.79;47.01;100117.16;5064272;28;1289;-20
2023/06/18 03:56:06;;;;;;;;;;;;;;;26.26;46.68;100124.91;5071732;28;1355;-17
2023/06/18 03:58:33;;;;;;;;;;;;;;;27.14;43.93;100132.94;5059155;28;1162;-17
2023/06/18 04:01:00;;;;;;;;;;;;;;;27.12;44.32;100119.63;5072209;28;1409;-18
2023/06/18 04:03:26;;;;;;;;;;;;;;;27.07;44.21;100129.34;5058875;28;1167;-18
2023/06/18 04:05:53;;;;;;;;;;;;;;;27.08;44.21;100134.53;5067600;28;1228;-17
2023/06/18 04:08:19;;;;;;;;;;;;;;;26.95;44.59;100124.47;5068774;28;1957;-18
2023/06/18 04:10:46;;;;;;;;;;;;;;;26.73;45.24;100131.75;5074859;28;1224;-18
2023/06/18 04:13:15;;;;;;;;;;;;;;;26.95;44.18;100129.03;5058442;28;1182;-19
2023/06/18 04:15:41;;;;;;;;;;;;;;;27.33;43.20;100131.38;5064336;28;1206;-18
2023/06/18 04:18:07;;;;;;;;;;;;;;;27.58;41.67;100130.84;5078147;28;1187;-19
2023/06/18 04:20:33;;;;;;;;;;;;;;;27.60;41.42;100125.25;5078055;28;1252;-18
2023/06/18 04:22:58;;;;;;;;;;;;;;;27.51;41.44;100132.69;5078080;28;1230;-18
2023/06/18 04:25:25;;;;;;;;;;;;;;;27.53;42.01;100132.50;5064372;28;1226;-18
2023/06/18 04:27:54;;;;;;;;;;;;;;;27.30;42.69;100129.06;5078123;28;1914;-18
2023/06/18 04:30:20;;;;;;;;;;;;;;;27.63;41.85;100132.94;5082153;28;1149;-19
2023/06/18 04:32:47;;;;;;;;;;;;;;;27.71;41.50;100137.41;5068531;28;1277;-19
2023/06/18 04:35:12;;;;;;;;;;;;;;;27.77;40.63;100131.19;5071243;28;1490;-19
2023/06/18 04:37:39;;;;;;;;;;;;;;;27.67;40.81;100134.22;5058330;28;1222;-17
2023/06/18 04:40:05;;;;;;;;;;;;;;;27.62;40.63;100142.09;5072186;28;1147;-18
2023/06/18 04:42:32;;;;;;;;;;;;;;;27.57;41.21;100148.13;5070057;28;1281;-18
2023/06/18 04:44:58;;;;;;;;;;;;;;;27.51;41.35;100136.22;5058191;28;1103;-18
2023/06/18 04:47:23;;;;;;;;;;;;;;;27.56;41.84;100135.63;5076487;28;1038;-18
2023/06/18 04:49:50;;;;;;;;;;;;;;;27.83;40.88;100146.56;5058575;28;1965;-18
2023/06/18 04:52:15;;;;;;;;;;;;;;;27.70;41.54;100138.41;5095842;28;1046;-18
2023/06/18 04:54:44;;;;;;;;;;;;;;;27.72;40.46;100148.00;5075214;28;1365;-19
2023/06/18 04:57:10;;;;;;;;;;;;;;;27.62;41.12;100139.41;5058243;28;1172;-19
2023/06/18 04:59:39;;;;;;;;;;;;;;;27.74;41.06;100143.19;5073190;28;1230;-18
2023/06/18 05:02:07;;;;;;;;;;;;;;;27.85;40.13;100139.09;5077973;28;1122;-17
2023/06/18 05:04:32;;;;;;;;;;;;;;;27.93;40.20;100151.59;5082670;28;1089;-19
2023/06/18 05:06:58;;;;;;;;;;;;;;;27.72;40.80;100139.06;5063709;28;1352;-18
2023/06/18 05:09:26;;;;;;;;;;;;;;;27.99;38.16;100149.97;5060394;28;1976;-19
2023/06/18 05:11:51;;;;;;;;;;;;;;;27.91;40.15;100155.53;5077746;28;1198;-18
2023/06/18 05:14:17;;;;;;;;;;;;;;;27.92;39.35;100158.03;5069326;28;1311;-18
2023/06/18 05:16:42;;;;;;;;;;;;;;;27.93;38.62;100158.84;5058386;28;1253;-19
2023/06/18 05:19:08;;;;;;;;;;;;;;;28.29;39.19;100160.44;5069370;28;1272;-18
2023/06/18 05:21:34;;;;;;;;;;;;;;;28.07;40.05;100155.19;5060006;28;1309;-19
2023/06/18 05:23:59;;;;;;;;;;;;;;;27.98;38.41;100159.94;5071089;28;1365;-18
2023/06/18 05:26:25;;;;;;;;;;;;;;;28.16;37.27;100160.41;5070016;28;1225;-19
2023/06/18 05:28:51;;;;;;;;;;;;;;;28.03;37.93;100172.03;5069753;28;1988;-18
2023/06/18 05:31:18;;;;;;;;;;;;;;;28.14;38.82;100173.28;5058153;28;1141;-19
2023/06/18 05:33:43;;;;;;;;;;;;;;;28.11;38.25;100175.34;5057627;28;1482;-18
2023/06/18 05:36:09;;;;;;;;;;;;;;;28.06;36.18;100169.72;5057557;28;1369;-19
2023/06/18 05:38:35;;;;;;;;;;;;;;;28.14;36.91;100175.97;5080557;28;1234;-18
2023/06/18 05:41:01;;;;;;;;;;;;;;;28.06;36.74;100177.81;5069557;28;1347;-18
2023/06/18 05:43:28;;;;;;;;;;;;;;;28.17;36.64;100191.81;5066068;28;1210;-18
2023/06/18 05:45:54;;;;;;;;;;;;;;;28.03;37.69;100190.94;5081019;28;1921;-18
2023/06/18 05:48:19;;;;;;;;;;;;;;;28.18;38.60;100188.88;5066070;28;1902;-17
2023/06/18 05:50:57;;;;;;;;;;;;;;;28.15;38.99;100189.31;5072226;28;1402;-18
2023/06/18 05:53:23;;;;;;;;;;;;;;;28.14;39.23;100189.50;5067892;28;1300;-17
2023/06/18 05:55:48;;;;;;;;;;;;;;;27.97;39.58;100196.13;5088987;28;900;-18
2023/06/18 05:58:14;;;;;;;;;;;;;;;28.00;39.54;100197.56;5074529;28;1225;-18
2023/06/18 06:00:40;;;;;;;;;;;;;;;28.03;39.71;100202.56;5061143;28;1289;-19
2023/06/18 06:03:08;;;;;;;;;;;;;;;28.31;38.99;100203.50;5074337;28;1111;-18
2023/06/18 06:05:35;;;;;;;;;;;;;;;27.96;40.38;100202.53;5077277;28;1248;-17
2023/06/18 06:08:01;;;;;;;;;;;;;;;27.82;40.12;100195.44;5070115;28;1898;-18
2023/06/18 06:10:27;;;;;;;;;;;;;;;27.93;40.45;100208.34;5077323;28;1237;-18
2023/06/18 06:12:53;;;;;;;;;;;;;;;27.91;40.15;100199.59;5060908;28;1178;-18
2023/06/18 06:15:18;;;;;;;;;;;;;;;27.96;39.72;100197.13;5080558;28;1154;-18
2023/06/18 06:17:45;;;;;;;;;;;;;;;27.98;39.44;100205.88;5077681;28;1308;-18
2023/06/18 06:20:12;;;;;;;;;;;;;;;28.19;38.75;100208.66;5077075;28;1317;-18
2023/06/18 06:22:38;;;;;;;;;;;;;;;27.96;38.37;100207.94;5073341;28;1249;-18
2023/06/18 06:25:05;;;;;;;;;;;;;;;28.06;39.14;100207.56;5074682;28;1276;-18
2023/06/18 06:27:31;;;;;;;;;;;;;;;28.09;38.34;100209.88;5060841;28;1266;-18
2023/06/18 06:29:59;;;;;;;;;;;;;;;28.23;38.32;100213.44;5064522;28;1914;-18
2023/06/18 06:32:24;;;;;;;;;;;;;;;28.23;37.37;100215.31;5067645;28;1078;-19
2023/06/18 06:34:50;;;;;;;;;;;;;;;28.19;38.08;100214.06;5069805;28;1401;-18
2023/06/18 06:37:17;;;;;;;;;;;;;;;28.18;36.69;100215.09;5066890;28;1412;-19
2023/06/18 06:39:43;;;;;;;;;;;;;;;28.33;36.86;100218.50;5080584;28;1162;-18
2023/06/18 06:42:10;;;;;;;;;;;;;;;28.28;37.38;100215.53;5066916;28;1319;-18
2023/06/18 06:44:36;;;;;;;;;;;;;;;28.14;37.61;100214.69;5070500;28;1095;-18
2023/06/18 06:47:20;;;;;;;;;;;;;;;28.25;38.10;100213.25;5083506;28;999;-18
2023/06/18 06:50:11;;;;;;;;;;;;;;;28.25;36.63;100210.53;5046815;28;1922;-18
2023/06/18 06:52:57;;;;;;;;;;;;;;;28.22;37.88;100213.66;5071623;28;1110;-19
2023/06/18 06:55:23;;;;;;;;;;;;;;;28.11;37.22;100218.59;5069611;28;972;-18
2023/06/18 06:57:48;;;;;;;;;;;;;;;28.21;37.54;100225.53;5060183;28;1146;-18
2023/06/18 07:00:14;;;;;;;;;;;;;;;28.31;37.08;100223.25;5074576;28;1445;-18
2023/06/18 07:02:40;;;;;;;;;;;;;;;28.31;36.23;100225.94;5079755;28;1396;-18
2023/06/18 07:05:07;;;;;;;;;;;;;;;28.24;37.71;100211.59;5084617;28;1114;-18
2023/06/18 07:07:32;;;;;;;;;;;;;;;28.37;36.43;100224.34;5097347;28;948;-18
2023/06/18 07:09:58;;;;;;;;;;;;;;;28.32;35.67;100224.09;5097521;28;1993;-18
2023/06/18 07:12:24;;;;;;;;;;;;;;;28.31;37.26;100225.13;5095415;28;1112;-19
2023/06/18 07:14:50;;;;;;;;;;;;;;;28.38;36.48;100227.88;5078046;28;1099;-18
2023/06/18 07:17:15;;;;;;;;;;;;;;;28.24;37.43;100220.50;5097413;28;1123;-19
2023/06/18 07:19:41;;;;;;;;;;;;;;;28.35;36.55;100221.00;5085641;28;1287;-18
2023/06/18 07:22:06;;;;;;;;;;;;;;;28.30;36.51;100227.00;5083601;28;1130;-18
2023/06/18 07:24:33;;;;;;;;;;;;;;;28.27;36.88;100231.97;5097568;28;1030;-19
2023/06/18 07:26:59;;;;;;;;;;;;;;;28.18;37.63;100224.03;5097124;28;1078;-19
2023/06/18 07:29:25;;;;;;;;;;;;;;;28.23;36.16;100234.25;5091609;28;1902;-18
2023/06/18 07:31:51;;;;;;;;;;;;;;;28.26;36.09;100227.63;5080810;28;916;-19
2023/06/18 07:34:17;;;;;;;;;;;;;;;28.23;36.35;100235.09;5079614;28;1234;-18
2023/06/18 07:36:42;;;;;;;;;;;;;;;28.28;35.63;100234.47;5088696;28;1181;-18
2023/06/18 07:39:08;;;;;;;;;;;;;;;28.32;36.01;100229.50;5090712;28;1273;-18
2023/06/18 07:41:34;;;;;;;;;;;;;;;28.26;34.79;100230.31;5086847;28;1285;-18
2023/06/18 07:44:00;;;;;;;;;;;;;;;28.16;36.86;100228.81;5083122;28;1233;-18
2023/06/18 07:46:26;;;;;;;;;;;;;;;28.21;35.65;100230.94;5083003;28;1246;-17
2023/06/18 07:48:51;;;;;;;;;;;;;;;28.25;36.33;100229.47;5078782;28;1909;-19
2023/06/18 07:51:17;;;;;;;;;;;;;;;28.28;36.95;100220.13;5090249;28;1183;-17
2023/06/18 07:53:43;;;;;;;;;;;;;;;28.34;35.04;100220.16;5082911;28;1253;-17
2023/06/18 07:56:08;;;;;;;;;;;;;;;28.43;35.82;100218.09;5095731;28;870;-17
2023/06/18 07:58:34;;;;;;;;;;;;;;;28.24;35.99;100225.94;5089948;28;1070;-18
2023/06/18 08:00:59;;;;;;;;;;;;;;;28.26;35.35;100223.00;5088437;28;1146;-18
2023/06/18 08:03:25;;;;;;;;;;;;;;;28.24;34.75;100225.94;5082599;28;1260;-18
2023/06/18 08:05:50;;;;;;;;;;;;;;;28.08;35.30;100231.69;5096179;28;1144;-18
2023/06/18 08:08:16;;;;;;;;;;;;;;;27.95;35.75;100227.91;5090488;28;1917;-18
2023/06/18 08:10:41;;;;;;;;;;;;;;;28.03;35.97;100229.59;5084107;28;1067;-18
2023/06/18 08:13:07;;;;;;;;;;;;;;;28.03;35.35;100237.72;5076573;28;1075;-17
2023/06/18 08:15:32;;;;;;;;;;;;;;;28.14;34.90;100235.47;5094290;28;1104;-18
2023/06/18 08:17:58;;;;;;;;;;;;;;;28.27;35.53;100240.09;5096219;28;1077;-18
2023/06/18 08:20:23;;;;;;;;;;;;;;;28.20;36.62;100248.19;5088677;28;1107;-18
2023/06/18 08:22:49;;;;;;;;;;;;;;;28.30;35.58;100237.81;5075234;28;1019;-18
2023/06/18 08:25:15;;;;;;;;;;;;;;;28.23;35.95;100235.09;5058848;28;1055;-18
2023/06/18 08:27:41;;;;;;;;;;;;;;;28.27;35.72;100234.69;5095626;28;1074;-18
2023/06/18 08:30:06;;;;;;;;;;;;;;;28.35;35.49;100248.03;5095194;28;1910;-18
2023/06/18 08:32:32;;;;;;;;;;;;;;;28.26;36.96;100233.03;5088159;28;886;-18
2023/06/18 08:34:57;;;;;;;;;;;;;;;28.41;36.59;100238.31;5089352;28;1162;-17
2023/06/18 08:37:23;;;;;;;;;;;;;;;28.36;35.90;100242.44;5084066;28;1162;-18
2023/06/18 08:39:49;;;;;;;;;;;;;;;28.32;35.99;100241.16;5095257;28;1010;-18
2023/06/18 08:42:20;;;;;;;;;;;;;;;28.42;36.76;100242.66;5087881;28;1169;-17
2023/06/18 08:44:46;;;;;;;;;;;;;;;28.35;36.52;100246.19;5089162;28;1170;-17
2023/06/18 08:47:11;;;;;;;;;;;;;;;28.41;36.42;100249.94;5083628;28;1143;-18
2023/06/18 08:49:39;;;;;;;;;;;;;;;28.46;36.88;100235.81;5082305;28;1917;-18
2023/06/18 08:52:08;;;;;;;;;;;;;;;28.47;36.48;100238.31;5077544;28;1083;-18
2023/06/18 08:54:34;;;;;;;;;;;;;;;28.49;35.80;100235.41;5093069;28;1050;-18
2023/06/18 08:57:11;;;;;;;;;;;;;;;28.47;35.57;100235.59;5084932;28;840;-18
2023/06/18 08:59:37;;;;;;;;;;;;;;;28.54;35.53;100230.22;5074114;28;1094;-18
2023/06/18 09:02:03;;;;;;;;;;;;;;;28.46;36.31;100219.59;5058336;28;1034;-18
2023/06/18 09:04:29;;;;;;;;;;;;;;;28.53;35.01;100235.84;5057820;28;1159;-18
2023/06/18 09:06:56;;;;;;;;;;;;;;;28.38;37.17;100227.88;5067887;28;987;-19
2023/06/18 09:09:22;;;;;;;;;;;;;;;28.50;36.79;100226.25;5059292;28;1910;-18
2023/06/18 09:11:48;;;;;;;;;;;;;;;28.31;36.08;100241.38;5072953;28;1024;-18
2023/06/18 09:14:16;;;;;;;;;;;;;;;28.23;36.23;100229.69;5094721;28;1114;-18
2023/06/18 09:16:42;;;;;;;;;;;;;;;28.24;36.35;100227.81;5082744;28;1082;-18
2023/06/18 09:19:08;;;;;;;;;;;;;;;28.21;35.65;100228.22;5090699;28;1122;-18
2023/06/18 09:21:38;;;;;;;;;;;;;;;28.16;36.44;100233.41;5068526;28;1435;-18
2023/06/18 09:24:22;;;;;;;;;;;;;;;28.18;35.44;100231.31;5091099;28;1046;-18
2023/06/18 09:26:50;;;;;;;;;;;;;;;28.18;36.91;100228.59;5084125;28;1290;-18
2023/06/18 09:29:16;;;;;;;;;;;;;;;28.26;35.40;100225.72;5087761;28;2001;-18
2023/06/18 09:31:44;;;;;;;;;;;;;;;28.41;35.41;100222.88;5067303;28;1472;-18
2023/06/18 09:34:13;;;;;;;;;;;;;;;28.54;35.79;100232.06;5085617;28;1135;-18
2023/06/18 09:36:41;;;;;;;;;;;;;;;28.34;35.75;100227.47;5098596;28;1145;-18
2023/06/18 09:39:33;;;;;;;;;;;;;;;28.19;35.73;100220.31;5102054;28;1055;-17
2023/06/18 09:42:09;;;;;;;;;;;;;;;28.22;35.72;100224.47;5099982;28;1830;-18
2023/06/18 09:44:34;;;;;;;;;;;;;;;28.18;35.74;100220.50;5102194;28;1030;-18
2023/06/18 09:47:00;;;;;;;;;;;;;;;28.28;36.17;100217.44;5102323;28;1026;-18
2023/06/18 09:49:29;;;;;;;;;;;;;;;28.30;35.01;100213.47;5081404;28;1910;-18
2023/06/18 09:51:54;;;;;;;;;;;;;;;28.45;35.39;100218.75;5073252;28;1316;-17
2023/06/18 09:54:20;;;;;;;;;;;;;;;28.41;35.93;100219.38;5082146;28;1253;-18
2023/06/18 09:56:54;;;;;;;;;;;;;;;28.52;35.85;100210.63;5090868;28;881;-18
2023/06/18 09:59:20;;;;;;;;;;;;;;;28.62;35.49;100202.13;5087786;28;1095;-17
2023/06/18 10:01:46;;;;;;;;;;;;;;;28.59;35.21;100202.53;5082795;28;1027;-18
2023/06/18 10:04:11;;;;;;;;;;;;;;;28.64;34.72;100199.19;5096852;28;1329;-18
2023/06/18 10:06:37;;;;;;;;;;;;;;;28.50;35.63;100203.75;5089106;28;1161;-18
2023/06/18 10:09:03;;;;;;;;;;;;;;;28.57;36.76;100201.91;5083206;28;1909;-18
2023/06/18 10:11:28;;;;;;;;;;;;;;;28.65;35.35;100182.75;5085336;28;1002;-18
2023/06/18 10:13:58;;;;;;;;;;;;;;;28.63;35.03;100184.81;5069215;28;1135;-18
2023/06/18 10:16:26;;;;;;;;;;;;;;;28.66;36.54;100186.31;5064194;28;1078;-19
2023/06/18 10:18:52;;;;;;;;;;;;;;;28.56;35.88;100175.88;5081837;28;1051;-18
2023/06/18 10:21:17;;;;;;;;;;;;;;;28.68;35.21;100181.50;5087054;28;1017;-18
2023/06/18 10:23:43;;;;;;;;;;;;;;;28.58;35.88;100184.63;5093485;28;976;-18
2023/06/18 10:26:10;;;;;;;;;;;;;;;28.56;35.50;100170.47;5059930;28;1081;-18
2023/06/18 10:28:36;;;;;;;;;;;;;;;28.53;35.44;100173.59;5091168;28;1913;-18
2023/06/18 10:31:01;;;;;;;;;;;;;;;28.64;35.06;100166.72;5068364;28;995;-18
2023/06/18 10:33:28;;;;;;;;;;;;;;;28.54;34.79;100161.72;5096287;28;1120;-18
2023/06/18 10:35:54;;;;;;;;;;;;;;;28.62;34.25;100163.38;5060619;28;1097;-18
2023/06/18 10:38:19;;;;;;;;;;;;;;;28.65;34.12;100162.97;5092976;28;1190;-18
2023/06/18 10:40:45;;;;;;;;;;;;;;;28.57;34.01;100161.31;5072207;28;1068;-18
2023/06/18 10:43:10;;;;;;;;;;;;;;;28.54;33.67;100162.56;5085527;28;1015;-17
2023/06/18 10:45:36;;;;;;;;;;;;;;;28.64;34.45;100150.50;5097815;28;881;-18
2023/06/18 10:48:18;;;;;;;;;;;;;;;28.52;34.21;100155.69;5084034;28;1988;-18
2023/06/18 10:51:04;;;;;;;;;;;;;;;28.47;34.28;100148.19;5084751;28;1090;-18
2023/06/18 10:53:29;;;;;;;;;;;;;;;28.46;34.17;100163.59;5086110;28;1611;-18
2023/06/18 10:55:58;;;;;;;;;;;;;;;28.56;33.94;100179.41;5095005;28;1010;-17
2023/06/18 10:58:42;;;;;;;;;;;;;;;28.81;34.21;100181.50;5086853;28;1083;-17
2023/06/18 11:01:22;;;;;;;;;;;;;;;28.75;33.24;100174.22;5084019;28;1129;-18
2023/06/18 11:03:49;;;;;;;;;;;;;;;28.99;33.40;100192.78;5097236;28;1062;-20
2023/06/18 11:06:15;;;;;;;;;;;;;;;28.72;34.56;100183.59;5060389;28;1191;-18
2023/06/18 11:08:40;;;;;;;;;;;;;;;28.78;34.56;100186.53;5060438;28;2271;-18
2023/06/18 11:11:06;;;;;;;;;;;;;;;28.67;34.60;100183.38;5058896;28;1195;-19
2023/06/18 11:13:32;;;;;;;;;;;;;;;28.65;33.55;100160.25;5079002;28;1003;-19
2023/06/18 11:16:16;;;;;;;;;;;;;;;28.69;34.24;100166.94;5078700;28;1621;-18
2023/06/18 11:18:43;;;;;;;;;;;;;;;28.54;34.04;100172.56;5083181;28;1186;-17
2023/06/18 11:21:18;;;;;;;;;;;;;;;28.68;34.04;100181.50;5097109;28;1057;-18
2023/06/18 11:23:44;;;;;;;;;;;;;;;28.72;34.31;100196.28;5073288;28;1300;-18
2023/06/18 11:26:16;;;;;;;;;;;;;;;28.67;34.29;100194.22;5089625;28;1024;-18
2023/06/18 11:28:42;;;;;;;;;;;;;;;28.69;33.64;100213.78;5097245;28;1988;-18
2023/06/18 11:31:08;;;;;;;;;;;;;;;28.71;33.98;100219.81;5082793;28;1069;-18
2023/06/18 11:33:33;;;;;;;;;;;;;;;28.88;34.34;100232.94;5064638;28;869;-16
2023/06/18 11:36:06;;;;;;;;;;;;;;;28.76;34.50;100258.97;5064519;28;1171;-16
2023/06/18 11:38:32;;;;;;;;;;;;;;;28.66;35.52;100227.72;5096303;28;1217;-17
2023/06/18 11:40:58;;;;;;;;;;;;;;;28.73;36.65;100296.22;5082160;28;1273;-18
2023/06/18 11:43:23;;;;;;;;;;;;;;;28.84;36.41;100285.84;5069476;28;1178;-18
2023/06/18 11:45:49;;;;;;;;;;;;;;;28.72;37.15;100289.16;5083912;28;1088;-18
2023/06/18 11:48:18;;;;;;;;;;;;;;;28.67;37.85;100297.06;5082027;28;1910;-19
2023/06/18 11:50:44;;;;;;;;;;;;;;;28.82;37.02;100310.41;5084387;28;1114;-19
2023/06/18 11:53:10;;;;;;;;;;;;;;;29.01;37.15;100343.16;5079301;28;1023;-17
2023/06/18 11:55:36;;;;;;;;;;;;;;;28.85;38.01;100360.59;5082152;28;1008;-18
2023/06/18 11:58:02;;;;;;;;;;;;;;;28.83;38.08;100346.41;5091424;28;1115;-19
2023/06/18 12:00:27;;;;;;;;;;;;;;;28.75;37.93;100338.47;5083269;28;1174;-17
2023/06/18 12:02:53;;;;;;;;;;;;;;;27.97;40.39;100341.25;5082759;28;1154;-17
2023/06/18 12:05:18;;;;;;;;;;;;;;;28.02;39.34;100346.06;5089204;28;1157;-17
2023/06/18 12:07:44;;;;;;;;;;;;;;;28.08;39.01;100346.09;5089564;28;1180;-16
2023/06/18 12:10:10;;;;;;;;;;;;;;;27.97;39.58;100347.50;5095725;28;1906;-16
2023/06/18 12:12:42;;;;;;;;;;;;;;;28.08;39.50;100338.00;5083710;28;1138;-17
2023/06/18 12:15:23;;;;;;;;;;;;;;;27.85;40.81;100362.59;5083830;28;1216;-16
2023/06/18 12:18:03;;;;;;;;;;;;;;;27.51;41.97;100363.16;5086188;28;1123;-17
2023/06/18 12:20:29;;;;;;;;;;;;;;;27.69;41.27;100364.59;5076161;28;1150;-16
2023/06/18 12:22:58;;;;;;;;;;;;;;;28.20;39.33;100364.47;5065236;28;967;-18
2023/06/18 12:25:26;;;;;;;;;;;;;;;28.26;39.75;100363.66;5078137;28;1065;-19
2023/06/18 12:27:54;;;;;;;;;;;;;;;28.20;39.70;100354.50;5095013;28;1007;-18
2023/06/18 12:30:26;;;;;;;;;;;;;;;28.17;39.96;100345.94;5077577;28;2005;-18
2023/06/18 12:33:21;;;;;;;;;;;;;;;28.26;39.26;100346.63;5094556;28;1030;-19
2023/06/18 12:35:50;;;;;;;;;;;;;;;28.07;39.52;100344.44;5082997;28;1374;-18
2023/06/18 12:38:16;;;;;;;;;;;;;;;28.39;38.81;100344.00;5081592;28;1127;-20
2023/06/18 12:40:48;;;;;;;;;;;;;;;28.26;40.55;100346.63;5095860;28;1015;-18
2023/06/18 12:43:15;;;;;;;;;;;;;;;28.29;39.72;100352.47;5095685;28;996;-19
2023/06/18 12:45:41;;;;;;;;;;;;;;;28.26;40.32;100350.13;5081405;28;1165;-17
2023/06/18 12:48:16;;;;;;;;;;;;;;;28.19;40.87;100335.75;5088498;28;1980;-19